Pagrindinis puslapis
METAR-TAF:

METAR-TAF

Oro uostai :

Sharurah, Saudo Arabija

platuma: 17-28N, ilguma: 047-07E, Aukštis: 720 m

Dabartinis oras

Ataskaita buvo paskelbta 30 minutes, ne 05:00 UTC
Ramus vėjas
Temperatūra 21°C
Drėgmė 30%
Slėgis 1019 hPa
Matomumas 10 km arba daugiau
nėra debesų žemiau 1500 m ir nėra kamuolinių lietaus debesų

METAR: OESH 290500Z 00000KT CAVOK 21/03 Q1019 NOSIG

Laikas: 08:30 (05:30 UTC)

Prognozė

Ataskaita buvo paskelbta 6 valandos ir 30 minutes, ne 23:00 UTC
Prognozė galioja nuo 29 metu 00 UTC su 30 metu 06 UTC
Vėjas 3 kt nuo kintamojo kryptimis
Matomumas 10 km arba daugiau
nėra debesų žemiau 1500 m ir nėra kamuolinių lietaus debesų
Tapsmas
nuo 29 metu 08 UTC su 29 metu 10 UTC
Vėjas 10 kt iš Rytų/Šiaurės Rytų
Tapsmas
nuo 29 metu 18 UTC su 29 metu 20 UTC
Vėjas 3 kt nuo kintamojo kryptimis

TAF: OESH 282300Z 2900/3006 VRB03KT CAVOK BECMG 2908/2910 07010KT BECMG 2918/2920 VRB03KT

Orai ataskaitas ir orų prognozės (METAR, TAF).

turimą stotys yra geltonos ir raudonos taškus žemėlapyje.

Perkelti pele per norėdami pamatyti stoties vardą.

Tada spustelėkite, norėdami matyti oro stebėjimo ir prognozės.

Norėdami pakeisti žemėlapį: spustelėkite ant žalios mygtukų su juodo kryžiaus žemyn,; žalią mygtuką su brūkšneliu, jei norite nutolinti; arba žalių rodyklių gretimoms žemėlapius.


METAR-TAF: